Time;durP1;ratioP1;P1;durP2;ratioP2;P2;SDS_P1;SDS_P2;PMS_P1;PMS_P2;Temp;Humidity;BMP_temperature;BMP_pressure;BME280_temperature;BME280_humidity;BME280_pressure;Samples;Min_cycle;Max_cycle;Signal;HPM_P1;HPM_P2
2023/08/22 00:01:30;;;;;;;4.17;2.40;;;23.10;99.90;;;;;;5094917;28;20472;-79
2023/08/22 00:03:57;;;;;;;5.93;2.60;;;23.20;99.90;;;;;;5095370;28;20462;-79
2023/08/22 00:06:25;;;;;;;2.30;1.97;;;23.10;99.90;;;;;;5094985;28;21022;-79
2023/08/22 00:08:52;;;;;;;4.37;2.87;;;23.10;99.90;;;;;;5094616;28;20502;-81
2023/08/22 00:11:19;;;;;;;5.33;2.60;;;23.10;99.90;;;;;;5094884;28;20548;-81
2023/08/22 00:13:47;;;;;;;3.47;2.70;;;23.10;99.90;;;;;;5094112;28;20528;-81
2023/08/22 00:16:15;;;;;;;5.90;2.30;;;23.10;99.90;;;;;;5094962;28;20462;-81
2023/08/22 00:18:42;;;;;;;2.80;2.50;;;23.10;99.90;;;;;;5094729;28;20527;-82
2023/08/22 00:21:09;;;;;;;2.93;2.70;;;23.00;99.90;;;;;;5094026;28;20465;-80
2023/08/22 00:23:46;;;;;;;6.53;2.43;;;23.00;99.90;;;;;;5092888;28;20486;-81
2023/08/22 00:26:14;;;;;;;5.87;2.57;;;23.00;99.90;;;;;;5094439;28;20468;-80
2023/08/22 00:28:41;;;;;;;6.17;3.10;;;22.90;99.90;;;;;;5094231;28;20478;-83
2023/08/22 00:31:08;;;;;;;4.53;2.70;;;22.90;99.90;;;;;;5093556;28;20469;-81
2023/08/22 00:33:36;;;;;;;3.53;2.40;;;22.90;99.90;;;;;;5094219;28;20474;-81
2023/08/22 00:36:03;;;;;;;5.50;2.57;;;22.90;99.90;;;;;;5093400;28;20530;-81
2023/08/22 00:38:30;;;;;;;4.67;2.70;;;22.80;99.90;;;;;;5093837;28;20469;-81
2023/08/22 00:40:57;;;;;;;3.50;3.13;;;22.90;99.90;;;;;;5093579;28;20466;-80
2023/08/22 00:43:24;;;;;;;8.00;2.97;;;22.80;99.90;;;;;;5094024;28;20470;-80
2023/08/22 00:45:51;;;;;;;4.53;2.67;;;22.80;99.90;;;;;;5093172;28;20473;-81
2023/08/22 00:48:18;;;;;;;5.57;2.50;;;22.80;99.90;;;;;;5094089;28;20851;-81
2023/08/22 00:50:47;;;;;;;3.17;2.97;;;22.80;99.90;;;;;;5093607;28;20477;-81
2023/08/22 00:53:14;;;;;;;5.07;2.40;;;22.80;99.90;;;;;;5092784;28;20464;-80
2023/08/22 00:55:41;;;;;;;2.27;2.00;;;22.70;99.90;;;;;;5093503;28;20477;-80
2023/08/22 00:58:10;;;;;;;4.50;3.00;;;22.70;99.90;;;;;;5092820;28;21035;-81
2023/08/22 01:00:40;;;;;;;4.30;2.63;;;22.70;99.90;;;;;;5092887;28;20472;-79
2023/08/22 01:03:08;;;;;;;4.07;3.00;;;22.70;99.90;;;;;;5093211;28;20461;-80
2023/08/22 01:05:42;;;;;;;6.27;3.20;;;22.70;99.90;;;;;;5093157;28;20474;-80
2023/08/22 01:08:15;;;;;;;4.20;2.50;;;22.60;99.90;;;;;;5093170;28;20469;-79
2023/08/22 01:10:46;;;;;;;3.53;2.70;;;22.60;99.90;;;;;;5093703;28;20473;-80
2023/08/22 01:13:22;;;;;;;4.23;2.67;;;22.60;99.90;;;;;;5093282;28;20475;-80
2023/08/22 01:15:51;;;;;;;4.70;2.57;;;22.60;99.90;;;;;;5093669;28;20473;-81
2023/08/22 01:18:19;;;;;;;5.50;2.40;;;22.50;99.90;;;;;;5093596;28;20450;-81
2023/08/22 01:20:46;;;;;;;3.80;2.57;;;22.50;99.90;;;;;;5093912;28;20548;-82
2023/08/22 01:23:14;;;;;;;5.33;3.27;;;22.50;99.90;;;;;;5092608;28;21004;-82
2023/08/22 01:25:41;;;;;;;3.83;2.30;;;22.50;99.90;;;;;;5094107;28;20837;-81
2023/08/22 01:28:13;;;;;;;5.67;3.23;;;22.50;99.90;;;;;;5093804;28;20466;-80
2023/08/22 01:30:48;;;;;;;3.03;2.07;;;22.50;99.90;;;;;;5093580;28;20802;-82
2023/08/22 01:33:22;;;;;;;4.20;3.10;;;22.50;99.90;;;;;;5097276;28;20517;-81
2023/08/22 01:35:51;;;;;;;4.47;2.73;;;22.50;99.90;;;;;;5097764;28;20473;-81
2023/08/22 01:38:22;;;;;;;3.10;2.53;;;22.50;99.90;;;;;;5096949;28;20518;-79
2023/08/22 01:40:49;;;;;;;2.80;2.60;;;22.50;99.90;;;;;;5097450;28;20476;-81
2023/08/22 01:43:18;;;;;;;3.17;2.17;;;22.50;99.90;;;;;;5088746;28;20966;-81
2023/08/22 01:45:45;;;;;;;3.73;2.37;;;22.60;99.90;;;;;;5110734;28;20473;-80
2023/08/22 01:48:12;;;;;;;5.50;2.43;;;22.60;99.90;;;;;;5095944;28;20806;-80
2023/08/22 01:50:39;;;;;;;4.00;2.43;;;22.60;99.90;;;;;;5097084;28;20465;-81
2023/08/22 01:53:06;;;;;;;2.13;1.97;;;22.60;99.90;;;;;;5096771;28;20977;-80
2023/08/22 01:55:35;;;;;;;2.77;2.40;;;22.60;99.90;;;;;;5096759;28;20476;-81
2023/08/22 01:58:04;;;;;;;3.73;2.70;;;22.60;99.90;;;;;;5096397;28;20477;-80
2023/08/22 02:00:31;;;;;;;4.20;2.53;;;22.70;99.90;;;;;;5097307;28;20468;-81
2023/08/22 02:02:58;;;;;;;3.70;2.30;;;22.70;99.90;;;;;;5097264;28;20470;-80
2023/08/22 02:05:25;;;;;;;4.60;2.13;;;22.60;99.90;;;;;;5096346;28;20929;-80
2023/08/22 02:07:52;;;;;;;3.80;2.33;;;22.60;99.90;;;;;;5096864;28;20462;-80
2023/08/22 02:10:20;;;;;;;2.83;2.17;;;22.60;99.90;;;;;;5095954;28;20466;-81
2023/08/22 02:12:50;;;;;;;3.20;2.23;;;22.60;99.90;;;;;;5097068;28;20464;-79
2023/08/22 02:15:17;;;;;;;5.90;3.00;;;22.60;99.90;;;;;;5096051;28;20503;-80
2023/08/22 02:17:46;;;;;;;2.90;2.20;;;22.60;99.90;;;;;;5096515;28;20473;-80
2023/08/22 02:20:17;;;;;;;1.90;1.70;;;22.60;99.90;;;;;;5095960;28;20853;-81
2023/08/22 02:22:44;;;;;;;3.50;2.30;;;22.70;99.90;;;;;;5096378;28;20477;-81
2023/08/22 02:25:12;;;;;;;4.30;2.10;;;22.70;99.90;;;;;;5094956;28;20480;-81
2023/08/22 02:27:39;;;;;;;4.47;2.13;;;22.70;99.90;;;;;;5102956;28;20475;-81
2023/08/22 02:30:09;;;;;;;3.67;2.40;;;22.80;99.90;;;;;;5096164;28;20470;-81
2023/08/22 02:32:36;;;;;;;4.00;2.40;;;22.80;99.90;;;;;;5096274;28;20464;-81
2023/08/22 02:35:03;;;;;;;2.50;1.97;;;22.80;99.90;;;;;;5095992;28;20516;-81
2023/08/22 02:37:30;;;;;;;5.00;2.93;;;22.80;99.90;;;;;;5095750;28;20985;-80
2023/08/22 02:39:57;;;;;;;3.10;2.47;;;22.80;99.90;;;;;;5096570;28;20502;-79
2023/08/22 02:42:25;;;;;;;4.23;2.47;;;22.80;99.90;;;;;;5095108;28;20477;-80
2023/08/22 02:44:52;;;;;;;2.93;2.10;;;22.80;99.90;;;;;;5095422;28;20473;-81
2023/08/22 02:47:20;;;;;;;3.50;2.43;;;22.80;99.90;;;;;;5095401;28;20469;-81
2023/08/22 02:49:47;;;;;;;3.60;2.83;;;22.80;99.90;;;;;;5096411;28;20530;-80
2023/08/22 02:52:14;;;;;;;2.90;2.47;;;22.80;99.90;;;;;;5095850;28;20536;-81
2023/08/22 02:54:41;;;;;;;2.93;2.30;;;22.80;99.90;;;;;;5095725;28;20969;-80
2023/08/22 02:57:09;;;;;;;2.47;1.93;;;22.80;99.90;;;;;;5096459;28;20469;-81
2023/08/22 02:59:36;;;;;;;4.43;2.50;;;22.80;99.90;;;;;;5094771;28;20461;-81
2023/08/22 03:02:06;;;;;;;2.00;1.80;;;22.80;99.90;;;;;;5095838;28;20466;-81
2023/08/22 03:04:37;;;;;;;2.63;1.90;;;22.80;99.90;;;;;;5095301;28;20523;-81
2023/08/22 03:07:04;;;;;;;3.13;2.83;;;22.80;99.90;;;;;;5096199;28;20462;-81
2023/08/22 03:09:31;;;;;;;2.30;2.10;;;22.90;99.90;;;;;;5093315;28;20469;-81
2023/08/22 03:11:59;;;;;;;3.47;3.17;;;22.90;99.90;;;;;;5095557;28;20466;-81
2023/08/22 03:14:26;;;;;;;2.87;2.60;;;22.90;99.90;;;;;;5094886;28;20818;-82
2023/08/22 03:16:53;;;;;;;3.47;2.03;;;22.80;99.90;;;;;;5095819;28;20519;-81
2023/08/22 03:19:20;;;;;;;2.27;1.90;;;22.80;99.90;;;;;;5095351;28;20471;-82
2023/08/22 03:21:48;;;;;;;4.03;2.50;;;22.80;99.90;;;;;;5095774;28;20854;-81
2023/08/22 03:24:15;;;;;;;4.73;2.07;;;22.80;99.90;;;;;;5095311;28;20469;-80
2023/08/22 03:26:42;;;;;;;4.03;1.93;;;22.80;99.90;;;;;;5095208;28;20474;-81
2023/08/22 03:29:11;;;;;;;4.90;2.93;;;22.90;99.90;;;;;;5095434;28;20801;-80
2023/08/22 03:31:38;;;;;;;5.77;2.40;;;22.90;99.90;;;;;;5094887;28;20958;-81
2023/08/22 03:34:05;;;;;;;6.40;2.67;;;22.90;99.90;;;;;;5095532;28;20477;-81
2023/08/22 03:36:32;;;;;;;4.47;2.20;;;22.90;99.90;;;;;;5094894;28;20971;-82
2023/08/22 03:39:02;;;;;;;3.40;2.50;;;22.80;99.90;;;;;;5094939;28;20996;-82
2023/08/22 03:41:29;;;;;;;5.60;2.77;;;22.80;99.90;;;;;;5094134;28;20469;-81
2023/08/22 03:43:56;;;;;;;5.00;2.20;;;22.80;99.90;;;;;;5095132;28;20951;-80
2023/08/22 03:46:23;;;;;;;3.30;2.47;;;22.70;99.90;;;;;;5094582;28;20788;-80
2023/08/22 03:48:50;;;;;;;4.07;2.20;;;22.80;99.90;;;;;;5095169;28;20541;-81
2023/08/22 03:51:17;;;;;;;3.60;2.67;;;22.80;99.90;;;;;;5095229;28;20469;-81
2023/08/22 03:53:44;;;;;;;2.33;2.13;;;22.80;99.90;;;;;;5085807;28;20480;-81
2023/08/22 03:56:12;;;;;;;2.10;1.90;;;22.80;99.90;;;;;;5094763;28;20552;-81
2023/08/22 03:58:39;;;;;;;4.13;2.60;;;22.80;99.90;;;;;;5094257;28;20507;-81
2023/08/22 04:01:06;;;;;;;2.63;1.77;;;22.80;99.90;;;;;;5094674;28;21095;-80
2023/08/22 04:03:35;;;;;;;4.50;2.40;;;22.90;99.90;;;;;;5094423;28;20541;-81
2023/08/22 04:06:03;;;;;;;3.03;2.20;;;22.80;99.90;;;;;;5094847;28;20481;-81
2023/08/22 04:08:30;;;;;;;4.00;2.40;;;22.80;99.90;;;;;;5094254;28;20493;-81
2023/08/22 04:10:57;;;;;;;3.43;2.13;;;22.70;99.90;;;;;;5094289;28;20490;-81
2023/08/22 04:13:25;;;;;;;2.73;2.40;;;22.70;99.90;;;;;;5094096;28;20523;-80
2023/08/22 04:15:52;;;;;;;4.83;2.40;;;22.70;99.90;;;;;;5094354;28;20473;-80
2023/08/22 04:18:23;;;;;;;3.20;2.10;;;22.70;99.90;;;;;;5094694;28;20530;-80
2023/08/22 04:20:50;;;;;;;3.47;2.17;;;22.70;99.90;;;;;;5093248;28;20468;-81
2023/08/22 04:23:17;;;;;;;3.63;1.60;;;22.70;99.90;;;;;;5095253;28;20465;-81
2023/08/22 04:25:44;;;;;;;4.83;2.67;;;22.70;99.90;;;;;;5093613;28;20798;-82
2023/08/22 04:28:11;;;;;;;4.67;2.33;;;22.70;99.90;;;;;;5094322;28;20477;-80
2023/08/22 04:30:39;;;;;;;5.60;2.60;;;22.70;99.90;;;;;;5094191;28;20457;-79
2023/08/22 04:33:07;;;;;;;3.43;2.90;;;22.70;99.90;;;;;;5094836;28;20461;-81
2023/08/22 04:35:34;;;;;;;9.90;2.53;;;22.70;99.90;;;;;;5084056;28;20863;-79
2023/08/22 04:38:03;;;;;;;2.90;2.10;;;22.60;99.90;;;;;;5109525;28;20465;-80
2023/08/22 04:40:30;;;;;;;3.17;2.87;;;22.60;99.90;;;;;;5094541;28;20523;-81
2023/08/22 04:42:57;;;;;;;3.80;2.60;;;22.50;99.90;;;;;;5093891;28;20465;-81
2023/08/22 04:45:27;;;;;;;3.00;1.87;;;22.50;99.90;;;;;;5094095;28;20492;-81
2023/08/22 04:47:58;;;;;;;1.87;1.67;;;22.60;99.90;;;;;;5093970;28;20465;-79
2023/08/22 04:50:25;;;;;;;2.20;2.00;;;22.60;99.90;;;;;;5093828;28;20485;-80
2023/08/22 04:52:52;;;;;;;3.77;1.90;;;22.70;99.90;;;;;;5093885;28;20499;-80
2023/08/22 04:55:19;;;;;;;3.10;2.00;;;22.70;99.90;;;;;;5093867;28;20469;-80
2023/08/22 04:57:46;;;;;;;5.70;2.10;;;22.70;99.90;;;;;;5093352;28;20465;-80
2023/08/22 05:00:14;;;;;;;4.90;2.30;;;22.70;99.90;;;;;;5094061;28;20499;-82
2023/08/22 05:02:41;;;;;;;2.23;1.60;;;22.60;99.90;;;;;;5093491;28;20466;-79
2023/08/22 05:05:10;;;;;;;3.40;1.73;;;22.70;99.90;;;;;;5093982;28;20480;-81
2023/08/22 05:07:37;;;;;;;3.70;2.20;;;22.70;99.90;;;;;;5103805;28;20452;-80
2023/08/22 05:10:05;;;;;;;6.33;2.20;;;22.70;99.90;;;;;;5096335;28;20461;-78
2023/08/22 05:12:32;;;;;;;3.03;2.27;;;22.70;99.90;;;;;;5093457;28;20953;-82
2023/08/22 05:15:03;;;;;;;2.70;2.30;;;22.70;99.90;;;;;;5093824;28;20465;-82
2023/08/22 05:17:30;;;;;;;4.90;1.50;;;22.70;99.90;;;;;;5093250;28;20470;-81
2023/08/22 05:19:57;;;;;;;5.63;2.27;;;22.70;99.90;;;;;;5093403;28;20960;-81
2023/08/22 05:22:26;;;;;;;6.80;2.20;;;22.70;99.90;;;;;;5092732;28;20864;-81
2023/08/22 05:24:53;;;;;;;3.57;2.10;;;22.70;99.90;;;;;;5093556;28;20780;-79
2023/08/22 05:27:23;;;;;;;3.20;2.13;;;22.70;99.90;;;;;;5092886;28;20470;-80
2023/08/22 05:29:50;;;;;;;3.67;1.80;;;22.70;99.90;;;;;;5093467;28;20961;-80
2023/08/22 05:32:16;;;;;;;2.37;1.70;;;22.80;99.90;;;;;;5093585;28;20962;-80
2023/08/22 05:34:43;;;;;;;4.80;2.20;;;22.80;99.90;;;;;;5092982;28;20463;-79
2023/08/22 05:37:11;;;;;;;3.50;2.03;;;22.80;99.90;;;;;;5093389;28;20538;-81
2023/08/22 05:39:39;;;;;;;3.20;1.93;;;22.90;99.90;;;;;;5093164;28;20522;-80
2023/08/22 05:42:06;;;;;;;3.20;1.73;;;22.90;99.90;;;;;;5091876;28;20470;-81
2023/08/22 05:44:35;;;;;;;3.87;2.30;;;23.00;99.90;;;;;;5092415;28;20478;-81
2023/08/22 05:47:04;;;;;;;3.90;2.13;;;23.00;99.90;;;;;;5093487;28;20475;-81
2023/08/22 05:49:31;;;;;;;3.17;2.30;;;23.00;99.90;;;;;;5092980;28;20499;-82
2023/08/22 05:52:04;;;;;;;2.30;2.10;;;23.00;99.90;;;;;;5093103;28;20803;-82
2023/08/22 05:54:31;;;;;;;2.80;1.87;;;23.00;99.90;;;;;;5092531;28;20539;-81
2023/08/22 05:57:00;;;;;;;8.90;2.70;;;23.00;99.90;;;;;;5092977;28;20457;-81
2023/08/22 05:59:27;;;;;;;5.40;2.53;;;23.10;99.90;;;;;;5092259;28;20473;-81
2023/08/22 06:01:54;;;;;;;6.00;2.23;;;23.10;99.90;;;;;;5093549;28;21020;-80
2023/08/22 06:04:21;;;;;;;3.80;2.43;;;23.10;99.90;;;;;;5093430;28;20473;-80
2023/08/22 06:06:48;;;;;;;6.60;2.20;;;23.20;99.90;;;;;;5093199;28;20449;-80
2023/08/22 06:09:16;;;;;;;3.53;2.20;;;23.20;99.90;;;;;;5093302;28;20472;-81
2023/08/22 06:11:45;;;;;;;3.00;2.30;;;23.20;99.90;;;;;;5093094;28;20803;-79
2023/08/22 06:14:17;;;;;;;6.17;3.00;;;23.30;99.90;;;;;;5093850;28;20473;-80
2023/08/22 06:16:44;;;;;;;2.80;1.80;;;23.30;99.90;;;;;;5092829;28;20520;-78
2023/08/22 06:19:11;;;;;;;4.27;2.20;;;23.30;99.90;;;;;;5099530;28;20501;-80
2023/08/22 06:21:38;;;;;;;3.57;2.07;;;23.20;99.90;;;;;;5098164;28;20957;-80
2023/08/22 06:24:08;;;;;;;2.57;1.83;;;23.30;99.90;;;;;;5096515;28;20501;-80
2023/08/22 06:26:35;;;;;;;5.07;2.27;;;23.30;99.90;;;;;;5096072;28;20522;-81
2023/08/22 06:29:02;;;;;;;5.17;2.37;;;23.30;99.90;;;;;;5097327;28;20479;-79
2023/08/22 06:31:31;;;;;;;4.90;2.40;;;23.30;99.90;;;;;;5096172;28;20921;-82
2023/08/22 06:33:58;;;;;;;6.20;2.77;;;23.40;99.90;;;;;;5096747;28;20458;-80
2023/08/22 06:36:26;;;;;;;4.77;2.83;;;23.40;99.90;;;;;;5096667;28;20543;-81
2023/08/22 06:38:53;;;;;;;5.30;2.33;;;23.50;99.90;;;;;;5096109;28;20839;-81
2023/08/22 06:41:20;;;;;;;6.40;2.50;;;23.50;99.90;;;;;;5096771;28;20491;-80
2023/08/22 06:43:48;;;;;;;2.80;2.17;;;23.60;99.90;;;;;;5095876;28;20480;-81
2023/08/22 06:46:16;;;;;;;2.67;1.77;;;23.60;99.90;;;;;;5095905;28;20862;-80
2023/08/22 06:48:45;;;;;;;2.83;1.90;;;23.50;99.90;;;;;;5095845;28;20473;-81
2023/08/22 06:51:11;;;;;;;6.33;2.70;;;23.60;99.90;;;;;;5096013;28;20461;-80
2023/08/22 06:53:38;;;;;;;3.40;2.03;;;23.60;99.90;;;;;;5095721;28;20539;-80
2023/08/22 06:56:05;;;;;;;3.73;2.37;;;23.60;99.90;;;;;;5096692;28;20518;-81
2023/08/22 06:58:32;;;;;;;5.47;2.23;;;23.70;99.90;;;;;;5095791;28;20462;-81
2023/08/22 07:00:59;;;;;;;3.33;2.10;;;23.80;99.90;;;;;;5096007;28;20832;-81
2023/08/22 07:03:27;;;;;;;4.77;2.40;;;23.80;99.90;;;;;;5096665;28;20469;-80
2023/08/22 07:05:55;;;;;;;4.60;2.10;;;23.80;99.90;;;;;;5095158;28;20941;-80
2023/08/22 07:08:22;;;;;;;3.33;2.10;;;23.80;99.90;;;;;;5095896;28;20527;-81
2023/08/22 07:10:49;;;;;;;2.00;1.73;;;23.80;99.90;;;;;;5095600;28;20523;-82
2023/08/22 07:13:16;;;;;;;7.53;2.97;;;23.90;99.90;;;;;;5095758;28;20546;-81
2023/08/22 07:15:43;;;;;;;3.50;2.33;;;23.90;99.90;;;;;;5095705;28;20477;-81
2023/08/22 07:18:11;;;;;;;4.43;2.33;;;23.90;99.90;;;;;;5096410;28;20477;-82
2023/08/22 07:20:38;;;;;;;4.70;2.80;;;23.90;99.90;;;;;;5095149;28;20525;-81
2023/08/22 07:23:08;;;;;;;7.77;1.93;;;24.00;99.90;;;;;;5096164;28;20465;-80
2023/08/22 07:25:34;;;;;;;5.37;2.20;;;24.00;99.90;;;;;;5093605;28;20470;-81
2023/08/22 07:28:02;;;;;;;3.93;2.60;;;24.00;99.90;;;;;;5096855;28;20461;-81
2023/08/22 07:30:29;;;;;;;7.20;2.60;;;24.00;99.90;;;;;;5098043;28;20461;-81
2023/08/22 07:32:57;;;;;;;5.47;2.37;;;24.00;99.90;;;;;;5098774;28;20477;-81
2023/08/22 07:35:24;;;;;;;2.33;1.70;;;24.00;99.90;;;;;;5099337;28;20531;-81
2023/08/22 07:37:51;;;;;;;3.33;2.17;;;24.00;99.90;;;;;;5100462;28;20469;-81
2023/08/22 07:40:19;;;;;;;2.37;1.80;;;24.10;99.90;;;;;;5103875;28;20525;-80
2023/08/22 07:42:46;;;;;;;11.30;2.90;;;24.10;99.90;;;;;;5098374;28;20472;-79
2023/08/22 07:45:13;;;;;;;4.07;2.30;;;24.00;99.90;;;;;;5098493;28;20470;-78
2023/08/22 07:51:03;;;;;;;7.07;2.33;;;24.00;99.90;;;;;;5065006;28;20525;-80
2023/08/22 07:53:31;;;;;;;6.30;2.10;;;23.90;99.90;;;;;;5099986;28;20541;-79
2023/08/22 07:55:59;;;;;;;3.40;2.00;;;23.90;99.90;;;;;;5095859;28;20838;-80
2023/08/22 07:58:26;;;;;;;4.13;2.33;;;23.90;99.90;;;;;;5096037;28;20542;-80
2023/08/22 08:00:54;;;;;;;3.43;2.00;;;24.00;99.90;;;;;;5099074;28;20487;-79
2023/08/22 08:03:21;;;;;;;7.10;2.27;;;24.00;99.90;;;;;;5097543;28;20472;-78
2023/08/22 08:05:48;;;;;;;4.40;2.17;;;24.00;99.90;;;;;;5099561;28;20469;-79
2023/08/22 08:08:15;;;;;;;4.93;2.40;;;24.00;99.90;;;;;;5098620;28;20483;-80
2023/08/22 08:10:45;;;;;;;4.23;2.80;;;24.00;99.90;;;;;;5099845;28;20472;-80
2023/08/22 08:13:16;;;;;;;5.10;2.90;;;24.10;99.90;;;;;;5100883;28;20489;-80
2023/08/22 08:15:43;;;;;;;5.33;2.27;;;24.10;99.90;;;;;;5102133;28;20560;-80
2023/08/22 08:18:11;;;;;;;4.70;2.20;;;24.20;99.90;;;;;;5105789;28;20475;-80
2023/08/22 08:20:38;;;;;;;7.30;2.00;;;24.20;99.90;;;;;;5100515;28;20465;-80
2023/08/22 08:23:05;;;;;;;5.00;1.90;;;24.20;99.90;;;;;;5098471;28;20476;-79
2023/08/22 08:25:36;;;;;;;5.10;2.83;;;24.10;99.90;;;;;;5104574;28;20861;-80
2023/08/22 08:28:04;;;;;;;3.83;1.80;;;24.10;99.90;;;;;;5096645;28;20480;-81
2023/08/22 08:30:43;;;;;;;2.40;2.20;;;24.20;99.90;;;;;;5097891;28;20453;-81
2023/08/22 08:33:12;;;;;;;3.00;2.07;;;24.20;99.90;;;;;;5098319;28;20476;-81
2023/08/22 08:35:40;;;;;;;7.07;2.60;;;24.20;99.90;;;;;;5095366;28;20466;-80
2023/08/22 08:38:07;;;;;;;5.10;2.20;;;24.20;99.90;;;;;;5094540;28;20495;-80
2023/08/22 08:40:36;;;;;;;2.73;2.27;;;24.20;99.90;;;;;;5094896;28;20465;-80
2023/08/22 08:43:04;;;;;;;3.53;2.27;;;24.30;99.90;;;;;;5097953;28;20902;-80
2023/08/22 08:45:32;;;;;;;4.00;2.33;;;24.30;99.90;;;;;;5093762;28;20962;-81
2023/08/22 08:48:00;;;;;;;6.27;2.57;;;24.30;99.90;;;;;;5094187;28;20464;-81
2023/08/22 08:50:28;;;;;;;6.43;3.00;;;24.30;99.90;;;;;;5091869;28;20534;-82
2023/08/22 08:52:55;;;;;;;8.73;3.53;;;24.30;99.90;;;;;;5100336;28;20489;-80
2023/08/22 08:55:22;;;;;;;6.47;2.90;;;24.40;99.90;;;;;;5093789;28;20470;-81
2023/08/22 08:57:49;;;;;;;5.90;2.80;;;24.40;99.90;;;;;;5093549;28;20481;-81
2023/08/22 09:00:16;;;;;;;9.37;3.10;;;24.50;99.90;;;;;;5091022;28;20549;-81
2023/08/22 09:02:45;;;;;;;4.20;2.73;;;24.50;99.90;;;;;;5101602;28;20469;-80
2023/08/22 09:05:13;;;;;;;9.80;2.63;;;24.50;99.90;;;;;;5093571;28;20469;-80
2023/08/22 09:07:40;;;;;;;4.70;2.40;;;24.60;99.90;;;;;;5092780;28;20526;-80
2023/08/22 09:10:07;;;;;;;2.50;2.30;;;24.70;99.90;;;;;;5093523;28;20866;-79
2023/08/22 09:12:36;;;;;;;6.10;3.00;;;24.80;99.90;;;;;;5092889;28;20493;-81
2023/08/22 09:15:03;;;;;;;3.50;2.60;;;25.00;99.90;;;;;;5093242;28;20489;-81
2023/08/22 09:17:31;;;;;;;4.20;2.30;;;25.10;99.90;;;;;;5093121;28;20538;-81
2023/08/22 09:19:58;;;;;;;7.00;2.43;;;25.20;99.90;;;;;;5093455;28;20466;-81
2023/08/22 09:22:31;;;;;;;7.10;2.30;;;25.40;99.90;;;;;;5093003;28;20503;-81
2023/08/22 09:24:58;;;;;;;3.03;2.63;;;25.50;99.90;;;;;;5093972;28;20963;-81
2023/08/22 09:27:26;;;;;;;2.83;2.53;;;25.60;99.90;;;;;;5093634;28;20465;-81
2023/08/22 09:29:54;;;;;;;7.13;2.40;;;25.70;99.90;;;;;;5093352;28;20475;-81
2023/08/22 09:32:22;;;;;;;4.90;2.10;;;25.90;99.90;;;;;;5093428;28;20846;-80
2023/08/22 09:34:57;;;;;;;4.47;2.30;;;25.90;99.90;;;;;;5092847;28;20738;-81
2023/08/22 09:37:32;;;;;;;6.30;2.30;;;25.90;99.90;;;;;;5093400;28;20517;-81
2023/08/22 09:39:59;;;;;;;4.93;2.50;;;25.90;99.90;;;;;;5093532;28;20457;-80
2023/08/22 09:42:29;;;;;;;4.90;3.03;;;25.90;99.90;;;;;;5093037;28;20473;-80
2023/08/22 09:44:57;;;;;;;2.97;2.30;;;25.90;99.90;;;;;;5093019;28;20461;-81
2023/08/22 09:47:28;;;;;;;3.63;2.27;;;25.90;99.90;;;;;;5093107;28;20480;-81
2023/08/22 09:49:59;;;;;;;3.63;2.17;;;25.90;99.90;;;;;;5092836;28;20755;-82
2023/08/22 09:52:27;;;;;;;7.10;2.30;;;25.90;99.90;;;;;;5094034;28;20466;-81
2023/08/22 09:54:56;;;;;;;3.73;2.10;;;26.00;99.90;;;;;;5096195;28;20469;-81
2023/08/22 09:57:25;;;;;;;3.70;2.40;;;26.00;99.90;;;;;;5097032;28;20805;-81
2023/08/22 09:59:52;;;;;;;3.40;2.03;;;26.00;99.90;;;;;;5096450;28;20845;-82
2023/08/22 10:02:20;;;;;;;4.43;2.50;;;26.00;99.90;;;;;;5096824;28;20469;-80
2023/08/22 10:04:50;;;;;;;4.10;2.40;;;25.90;99.90;;;;;;5096512;28;20481;-81
2023/08/22 10:07:17;;;;;;;4.33;2.53;;;25.90;99.90;;;;;;5096867;28;20526;-81
2023/08/22 10:09:45;;;;;;;3.87;2.13;;;25.90;99.90;;;;;;5096142;28;20542;-81
2023/08/22 10:12:18;;;;;;;4.37;2.33;;;25.90;99.90;;;;;;5096686;28;20526;-80
2023/08/22 10:14:56;;;;;;;7.87;3.03;;;25.90;99.90;;;;;;5096154;28;20473;-80
2023/08/22 10:17:27;;;;;;;6.13;2.90;;;25.90;99.90;;;;;;5094280;28;20473;-82
2023/08/22 10:20:04;;;;;;;3.57;2.50;;;25.90;99.90;;;;;;5095943;28;20522;-81
2023/08/22 10:22:33;;;;;;;3.97;2.30;;;26.00;99.90;;;;;;5096591;28;20500;-81
2023/08/22 10:25:08;;;;;;;3.63;2.60;;;26.00;99.90;;;;;;5096315;28;20461;-81
2023/08/22 10:27:40;;;;;;;4.03;2.50;;;26.10;99.90;;;;;;5096618;28;20477;-81
2023/08/22 10:30:21;;;;;;;9.60;2.97;;;26.20;99.90;;;;;;5095462;28;20510;-81
2023/08/22 10:33:07;;;;;;;3.63;2.23;;;26.20;99.90;;;;;;5095317;28;20460;-81
2023/08/22 10:35:34;;;;;;;3.47;2.27;;;26.30;99.90;;;;;;5096093;28;20473;-81
2023/08/22 10:38:01;;;;;;;4.03;2.40;;;26.30;99.90;;;;;;5095679;28;20475;-81
2023/08/22 10:40:33;;;;;;;5.13;2.60;;;26.30;99.90;;;;;;5096133;28;20496;-81
2023/08/22 10:43:13;;;;;;;2.63;2.37;;;26.30;99.90;;;;;;5094567;28;20505;-82
2023/08/22 10:45:43;;;;;;;3.40;2.30;;;26.40;99.90;;;;;;5095911;28;20980;-81
2023/08/22 10:48:11;;;;;;;3.57;2.20;;;26.50;99.90;;;;;;5095466;28;20481;-82
2023/08/22 10:50:42;;;;;;;2.70;1.90;;;26.50;99.90;;;;;;5097275;28;20471;-80
2023/08/22 10:53:27;;;;;;;7.80;3.20;;;26.60;99.90;;;;;;5096388;28;20782;-79
2023/08/22 10:55:57;;;;;;;3.37;2.40;;;26.60;99.90;;;;;;5093696;28;20465;-80
2023/08/22 10:58:37;;;;;;;3.90;2.47;;;26.70;99.90;;;;;;5096415;28;20473;-80
2023/08/22 11:01:10;;;;;;;3.90;3.10;;;26.80;99.90;;;;;;5086456;28;20569;-80
2023/08/22 11:03:37;;;;;;;3.33;2.30;;;26.80;99.90;;;;;;5095874;28;20912;-80
2023/08/22 11:06:19;;;;;;;3.17;2.80;;;26.90;99.90;;;;;;5095077;28;20550;-81
2023/08/22 11:08:47;;;;;;;5.93;3.13;;;26.90;99.90;;;;;;5095506;28;20525;-81
2023/08/22 11:11:23;;;;;;;5.30;2.77;;;26.90;99.90;;;;;;5087879;28;20477;-81
2023/08/22 11:13:51;;;;;;;6.43;2.50;;;26.90;99.90;;;;;;5107236;28;20470;-81
2023/08/22 11:16:21;;;;;;;5.67;2.53;;;26.90;99.90;;;;;;5095309;28;20529;-81
2023/08/22 11:18:49;;;;;;;4.77;2.90;;;26.90;99.90;;;;;;5095660;28;20462;-80
2023/08/22 11:21:19;;;;;;;7.93;2.60;;;26.90;99.90;;;;;;5094441;28;20461;-80
2023/08/22 11:23:46;;;;;;;5.10;2.37;;;26.90;99.90;;;;;;5094829;28;20461;-80
2023/08/22 11:26:13;;;;;;;5.83;2.63;;;26.90;99.90;;;;;;5094735;28;20461;-80
2023/08/22 11:28:40;;;;;;;9.60;2.47;;;26.80;99.90;;;;;;5095044;28;20536;-81
2023/08/22 11:31:16;;;;;;;6.13;2.50;;;26.80;99.90;;;;;;5094610;28;20556;-81
2023/08/22 11:33:49;;;;;;;7.33;2.43;;;26.80;99.90;;;;;;5094883;28;20460;-80
2023/08/22 11:36:17;;;;;;;4.47;2.70;;;26.80;99.90;;;;;;5094684;28;20941;-81
2023/08/22 11:38:44;;;;;;;6.53;3.17;;;26.80;99.60;;;;;;5094827;28;20484;-80
2023/08/22 11:41:12;;;;;;;7.23;2.70;;;26.70;99.50;;;;;;5094167;28;20991;-81
2023/08/22 11:44:00;;;;;;;5.93;2.53;;;26.70;99.40;;;;;;5094912;28;20465;-80
2023/08/22 11:46:33;;;;;;;3.90;2.33;;;26.80;98.90;;;;;;5094756;28;20461;-80
2023/08/22 11:49:08;;;;;;;3.57;2.60;;;26.80;98.60;;;;;;5094699;28;20534;-80
2023/08/22 11:51:37;;;;;;;4.40;2.73;;;26.80;98.80;;;;;;5094401;28;20458;-81
2023/08/22 11:54:07;;;;;;;6.13;2.93;;;26.80;98.90;;;;;;5090505;28;20469;-81
2023/08/22 11:56:34;;;;;;;4.43;3.70;;;26.90;98.50;;;;;;5094273;28;20524;-81
2023/08/22 11:59:01;;;;;;;5.17;2.40;;;26.90;98.70;;;;;;5094470;28;20461;-81
2023/08/22 12:01:32;;;;;;;3.70;2.10;;;26.90;98.50;;;;;;5093980;28;20485;-81
2023/08/22 12:03:59;;;;;;;1.90;1.70;;;26.90;98.60;;;;;;5093443;28;20592;-81
2023/08/22 12:06:29;;;;;;;4.53;2.30;;;26.90;98.30;;;;;;5093945;28;20553;-81
2023/08/22 12:09:00;;;;;;;2.60;2.37;;;27.00;97.60;;;;;;5094549;28;20552;-80
2023/08/22 12:11:28;;;;;;;2.30;2.10;;;26.90;97.50;;;;;;5085161;28;20481;-82
2023/08/22 12:13:55;;;;;;;4.00;2.17;;;27.00;97.40;;;;;;5092905;28;20830;-80
2023/08/22 12:16:25;;;;;;;2.17;2.07;;;27.00;97.70;;;;;;5107200;28;20491;-80
2023/08/22 12:18:53;;;;;;;3.63;2.60;;;27.00;97.30;;;;;;5111691;28;20455;-81
2023/08/22 12:21:20;;;;;;;2.33;1.93;;;27.00;97.10;;;;;;5114560;28;20895;-81
2023/08/22 12:23:49;;;;;;;3.83;2.27;;;27.00;96.80;;;;;;5111431;28;20472;-81
2023/08/22 12:26:16;;;;;;;3.07;2.07;;;27.10;96.00;;;;;;5109953;28;20929;-81
2023/08/22 12:28:43;;;;;;;3.70;2.03;;;27.00;96.10;;;;;;5113147;28;20477;-81
2023/08/22 12:31:11;;;;;;;2.33;2.03;;;27.00;95.60;;;;;;5110054;28;20470;-80
2023/08/22 12:33:39;;;;;;;3.10;1.90;;;27.00;95.70;;;;;;5101149;28;20496;-80
2023/08/22 12:36:08;;;;;;;2.17;1.80;;;27.00;96.40;;;;;;5106000;28;20483;-80
2023/08/22 12:38:35;;;;;;;2.47;2.00;;;27.00;98.90;;;;;;5113636;28;20470;-80
2023/08/22 12:41:07;;;;;;;3.10;2.50;;;27.00;98.40;;;;;;5109134;28;20487;-80
2023/08/22 12:43:35;;;;;;;7.57;2.83;;;26.90;97.90;;;;;;5113865;28;20865;-77
2023/08/22 12:46:02;;;;;;;3.23;2.60;;;26.90;97.30;;;;;;5111997;28;20470;-80
2023/08/22 12:48:33;;;;;;;5.37;4.63;;;26.90;97.40;;;;;;5111854;28;20471;-80
2023/08/22 12:51:00;;;;;;;3.67;2.80;;;26.90;99.40;;;;;;5105052;28;21109;-79
2023/08/22 12:53:29;;;;;;;3.20;3.00;;;26.90;97.70;;;;;;5108010;28;20501;-80
2023/08/22 12:55:59;;;;;;;3.00;2.50;;;26.90;97.50;;;;;;5100353;28;20474;-79
2023/08/22 12:58:28;;;;;;;9.23;8.33;;;26.80;96.70;;;;;;5095063;28;20468;-80